| time (UTC) | temp F | wind direction | speed MPH | gust MPH | rain 1hr in | rain 24hr in | rain mn in | humidity % | barometer mb |
| 20260831181914 | 75 | 124 | 4.0 | 12.0 | 0.00 | 0.69 | 0.00 | 83 | 1017.7 |
| 20260831181413 | 75 | 150 | 5.0 | 11.0 | 0.00 | 0.69 | 0.00 | 84 | 1017.7 |
| 20260831180915 | 75 | 158 | 5.0 | 6.0 | 0.00 | 0.69 | 0.00 | 87 | 1017.8 |
| 20260831180413 | 75 | 113 | 1.0 | 5.0 | 0.01 | 0.69 | 0.00 | 88 | 1017.8 |
| 20260831175914 | 75 | 118 | 3.0 | 6.0 | 0.01 | 0.69 | 0.00 | 88 | 1017.8 |
| 20260831172917 | 74 | 172 | 1.0 | 7.0 | 0.05 | 0.69 | 0.00 | 88 | 1018.2 |
| 20260831172417 | 74 | 184 | 3.0 | 6.0 | 0.06 | 0.69 | 0.00 | 89 | 1018.1 |
| 20260831171916 | 74 | 214 | 2.0 | 5.0 | 0.07 | 0.69 | 0.00 | 89 | 1018.0 |
| 20260831171416 | 73 | 178 | 5.0 | 7.0 | 0.08 | 0.69 | 0.00 | 88 | 1017.9 |
| 20260831170917 | 73 | 190 | 2.0 | 7.0 | 0.09 | 0.69 | 0.00 | 89 | 1017.7 |
| 20260831170416 | 73 | 188 | 5.0 | 6.0 | 0.08 | 0.68 | 0.00 | 89 | 1017.5 |
| 20260831165918 | 73 | 202 | 1.0 | 4.0 | 0.09 | 0.68 | 0.00 | 89 | 1017.3 |
| 20260831165417 | 72 | 121 | 2.0 | 2.0 | 0.10 | 0.67 | 0.00 | 89 | 1017.2 |
| 20260831164917 | 72 | 55 | 1.0 | 4.0 | 0.11 | 0.67 | 0.00 | 88 | 1017.2 |
| 20260831164417 | 72 | 57 | 7.0 | 7.0 | 0.14 | 0.66 | 0.00 | 88 | 1017.3 |
| 20260831163917 | 72 | 40 | 3.0 | 7.0 | 0.15 | 0.65 | 0.00 | 88 | 1017.5 |
| 20260831163417 | 72 | 36 | 2.0 | 7.0 | 0.17 | 0.64 | 0.00 | 88 | 1017.6 |
| 20260831162917 | 72 | 36 | 4.0 | 10.0 | 0.17 | 0.63 | 0.00 | 88 | 1017.6 |
| 20260831162416 | 72 | 17 | 6.0 | 10.0 | 0.16 | 0.62 | 0.00 | 89 | 1017.7 |
| 20260831161917 | 72 | 0 | 7.0 | 11.0 | 0.15 | 0.61 | 0.00 | 89 | 1017.7 |
| 20260831161417 | 72 | 42 | 6.0 | 12.0 | 0.14 | 0.60 | 0.00 | 89 | 1017.7 |
| 20260831160917 | 72 | 37 | 8.0 | 13.0 | 0.13 | 0.59 | 0.00 | 89 | 1017.8 |
| 20260831160417 | 72 | 42 | 10.0 | 12.0 | 0.13 | 0.59 | 0.00 | 88 | 1017.7 |
| 20260831155916 | 72 | 348 | 5.0 | 11.0 | 0.11 | 0.58 | 0.00 | 87 | 1017.7 |
| 20260831155416 | 72 | 0 | 4.0 | 10.0 | 0.09 | 0.56 | 0.00 | 87 | 1017.7 |
| 20260831154917 | 73 | 348 | 6.0 | 12.0 | 0.09 | 0.55 | 0.00 | 86 | 1017.7 |
| 20260831154417 | 73 | 350 | 7.0 | 11.0 | 0.06 | 0.52 | 0.00 | 84 | 1017.7 |
| 20260831153917 | 74 | 46 | 3.0 | 10.0 | 0.04 | 0.50 | 0.00 | 82 | 1017.6 |
| 20260831153416 | 75 | 67 | 5.0 | 10.0 | 0.01 | 0.47 | 0.00 | 80 | 1017.7 |
| 20260831152918 | 76 | 5 | 5.0 | 8.0 | 0.00 | 0.46 | 0.00 | 77 | 1017.6 |
| 20260831152417 | 76 | 83 | 8.0 | 13.0 | 0.00 | 0.46 | 0.00 | 78 | 1017.6 |
| 20260831151917 | 76 | 152 | 0.0 | 4.0 | 0.00 | 0.46 | 0.00 | 76 | 1017.6 |
| 20260831151416 | 76 | 163 | 2.0 | 5.0 | 0.00 | 0.46 | 0.00 | 76 | 1017.6 |
| 20260831150917 | 76 | 171 | 3.0 | 8.0 | 0.00 | 0.46 | 0.00 | 75 | 1017.4 |
| 20260831150416 | 77 | 136 | 6.0 | 10.0 | 0.00 | 0.46 | 0.00 | 74 | 1017.1 |
| 20260831145916 | 76 | 147 | 6.0 | 16.0 | 0.00 | 0.46 | 0.00 | 74 | 1016.9 |
| 20260831145418 | 76 | 146 | 10.0 | 16.0 | 0.01 | 0.46 | 0.00 | 75 | 1016.6 |
| 20260831144917 | 76 | 95 | 6.0 | 13.0 | 0.01 | 0.46 | 0.00 | 75 | 1016.5 |
| 20260831144416 | 76 | 144 | 6.0 | 15.0 | 0.01 | 0.46 | 0.00 | 76 | 1016.5 |
| 20260831143916 | 76 | 179 | 10.0 | 16.0 | 0.01 | 0.46 | 0.00 | 76 | 1016.4 |
| 20260831143417 | 76 | 158 | 8.0 | 18.0 | 0.02 | 0.46 | 0.00 | 76 | 1016.3 |
| 20260831142917 | 76 | 133 | 5.0 | 17.0 | 0.02 | 0.46 | 0.00 | 77 | 1016.2 |
| 20260831142417 | 75 | 155 | 5.0 | 16.0 | 0.02 | 0.46 | 0.00 | 77 | 1016.1 |
| 20260831141917 | 75 | 121 | 8.0 | 16.0 | 0.02 | 0.46 | 0.00 | 77 | 1016.0 |
| 20260831141416 | 75 | 159 | 10.0 | 17.0 | 0.02 | 0.46 | 0.00 | 78 | 1015.8 |
| 20260831140916 | 75 | 102 | 11.0 | 20.0 | 0.02 | 0.46 | 0.00 | 80 | 1015.8 |
| 20260831140416 | 74 | 126 | 14.0 | 16.0 | 0.02 | 0.46 | 0.00 | 80 | 1015.9 |
| 20260831135916 | 74 | 107 | 11.0 | 18.0 | 0.02 | 0.46 | 0.00 | 81 | 1015.9 |
| 20260831135417 | 74 | 140 | 6.0 | 16.0 | 0.01 | 0.45 | 0.00 | 81 | 1015.8 |
| 20260831134916 | 74 | 109 | 8.0 | 17.0 | 0.02 | 0.45 | 0.00 | 81 | 1015.8 |
| 20260831134417 | 74 | 112 | 9.0 | 21.0 | 0.02 | 0.45 | 0.00 | 81 | 1015.8 |
| 20260831133918 | 74 | 129 | 12.0 | 18.0 | 0.02 | 0.45 | 0.00 | 82 | 1015.9 |
| 20260831133416 | 75 | 86 | 7.0 | 14.0 | 0.01 | 0.44 | 0.00 | 82 | 1015.9 |
| 20260831132916 | 75 | 191 | 8.0 | 15.0 | 0.01 | 0.44 | 0.00 | 81 | 1016.0 |
| 20260831132417 | 75 | 101 | 7.0 | 16.0 | 0.01 | 0.44 | 0.00 | 80 | 1015.8 |
| 20260831131917 | 76 | 126 | 5.0 | 19.0 | 0.01 | 0.44 | 0.00 | 80 | 1015.7 |
| 20260831131417 | 76 | 112 | 13.0 | 23.0 | 0.01 | 0.44 | 0.00 | 79 | 1015.5 |
| 20260831130916 | 76 | 111 | 11.0 | 20.0 | 0.01 | 0.44 | 0.00 | 79 | 1015.6 |
| 20260831130416 | 76 | 106 | 10.0 | 16.0 | 0.01 | 0.44 | 0.00 | 79 | 1015.6 |
| 20260831125917 | 77 | 129 | 11.0 | 22.0 | 0.01 | 0.44 | 0.00 | 78 | 1015.6 |
| 20260831125416 | 77 | 183 | 6.0 | 14.0 | 0.01 | 0.44 | 0.00 | 77 | 1015.6 |
| 20260831124916 | 77 | 142 | 6.0 | 14.0 | 0.00 | 0.43 | 0.00 | 75 | 1015.5 |
| 20260831124417 | 77 | 134 | 7.0 | 12.0 | 0.00 | 0.43 | 0.00 | 77 | 1015.4 |
| 20260831123916 | 77 | 148 | 5.0 | 10.0 | 0.00 | 0.43 | 0.00 | 78 | 1015.3 |
| 20260831123416 | 76 | 122 | 4.0 | 5.0 | 0.00 | 0.43 | 0.00 | 79 | 1015.3 |
| 20260831122916 | 76 | 136 | 2.0 | 7.0 | 0.00 | 0.43 | 0.00 | 79 | 1015.1 |
| 20260831122417 | 76 | 197 | 2.0 | 4.0 | 0.00 | 0.43 | 0.00 | 77 | 1014.8 |
| 20260831121918 | 76 | 191 | 3.0 | 5.0 | 0.00 | 0.43 | 0.00 | 76 | 1014.6 |
| 20260831121417 | 76 | 340 | 2.0 | 5.0 | 0.00 | 0.43 | 0.00 | 77 | 1014.1 |
| 20260831120917 | 76 | 326 | 1.0 | 5.0 | 0.00 | 0.43 | 0.00 | 79 | 1013.9 |
| 20260831120417 | 75 | 340 | 3.0 | 7.0 | 0.00 | 0.43 | 0.00 | 79 | 1013.8 |
| 20260831115916 | 75 | 333 | 5.0 | 7.0 | 0.00 | 0.43 | 0.00 | 80 | 1013.7 |
| 20260831115416 | 75 | 0 | 6.0 | 6.0 | 0.00 | 0.43 | 0.00 | 82 | 1013.5 |
| 20260831114916 | 75 | 13 | 2.0 | 5.0 | 0.00 | 0.43 | 0.00 | 83 | 1013.4 |
| 20260831114416 | 75 | 324 | 2.0 | 6.0 | 0.00 | 0.43 | 0.00 | 83 | 1013.3 |
| 20260831113916 | 75 | 348 | 4.0 | 5.0 | 0.00 | 0.43 | 0.00 | 83 | 1013.2 |
| 20260831113417 | 75 | 330 | 3.0 | 6.0 | 0.00 | 0.43 | 0.00 | 84 | 1013.1 |
| 20260831112916 | 75 | 349 | 2.0 | 5.0 | 0.00 | 0.43 | 0.00 | 84 | 1013.0 |
| 20260831112416 | 75 | 13 | 2.0 | 5.0 | 0.00 | 0.43 | 0.00 | 84 | 1013.0 |
| 20260831111917 | 75 | 11 | 2.0 | 6.0 | 0.00 | 0.43 | 0.00 | 84 | 1013.0 |
| 20260831111417 | 75 | 16 | 1.0 | 3.0 | 0.00 | 0.43 | 0.00 | 86 | 1013.1 |
| 20260831110917 | 75 | 41 | 1.0 | 2.0 | 0.00 | 0.43 | 0.00 | 86 | 1013.2 |
| 20260831110416 | 75 | 320 | 0.0 | 1.0 | 0.00 | 0.43 | 0.00 | 87 | 1013.2 |
| 20260831105917 | 75 | 320 | 1.0 | 2.0 | 0.00 | 0.43 | 0.00 | 87 | 1013.2 |
| 20260831105417 | 75 | 320 | 0.0 | 1.0 | 0.01 | 0.43 | 0.00 | 89 | 1013.1 |
| 20260831104918 | 75 | 320 | 0.0 | 1.0 | 0.01 | 0.43 | 0.00 | 88 | 1013.0 |
| 20260831104416 | 75 | 320 | 0.0 | 2.0 | 0.02 | 0.43 | 0.00 | 87 | 1012.9 |
| 20260831103916 | 75 | 320 | 1.0 | 3.0 | 0.02 | 0.43 | 0.00 | 88 | 1012.8 |
| 20260831103416 | 75 | 333 | 3.0 | 3.0 | 0.02 | 0.43 | 0.00 | 88 | 1012.8 |
| 20260831102917 | 75 | 94 | 0.0 | 1.0 | 0.03 | 0.43 | 0.00 | 88 | 1012.8 |
| 20260831102416 | 75 | 94 | 0.0 | 2.0 | 0.03 | 0.43 | 0.00 | 87 | 1012.6 |
| 20260831101916 | 75 | 103 | 2.0 | 4.0 | 0.03 | 0.43 | 0.00 | 88 | 1012.7 |
| 20260831101416 | 75 | 86 | 0.0 | 0.0 | 0.03 | 0.43 | 0.00 | 87 | 1012.7 |
| 20260831100917 | 75 | 86 | 0.0 | 0.0 | 0.04 | 0.43 | 0.00 | 87 | 1012.7 |
| 20260831100416 | 75 | 86 | 0.0 | 1.0 | 0.04 | 0.43 | 0.00 | 86 | 1012.8 |
| 20260831095916 | 75 | 86 | 1.0 | 2.0 | 0.04 | 0.43 | 0.00 | 83 | 1012.7 |
| 20260831095416 | 75 | 82 | 2.0 | 5.0 | 0.03 | 0.42 | 0.00 | 84 | 1012.7 |
| 20260831094916 | 75 | 98 | 3.0 | 4.0 | 0.03 | 0.42 | 0.00 | 83 | 1012.8 |
| 20260831094417 | 74 | 113 | 4.0 | 5.0 | 0.03 | 0.41 | 0.00 | 83 | 1013.0 |
| 20260831093916 | 75 | 252 | 0.0 | 3.0 | 0.03 | 0.41 | 0.00 | 83 | 1013.2 |
| 20260831093416 | 74 | 39 | 0.0 | 6.0 | 0.03 | 0.41 | 0.00 | 81 | 1013.2 |
| 20260831092917 | 73 | 32 | 3.0 | 9.0 | 0.05 | 0.40 | 0.00 | 81 | 1013.0 |
| 20260831092416 | 73 | 46 | 6.0 | 6.0 | 0.19 | 0.40 | 0.00 | 83 | 1013.0 |
| 20260831091916 | 73 | 56 | 3.0 | 12.0 | 0.29 | 0.40 | 0.00 | 82 | 1013.0 |
| 20260831091417 | 73 | 0 | 6.0 | 13.0 | 0.40 | 0.40 | 0.00 | 81 | 1013.0 |
| 20260831090917 | 73 | 16 | 8.0 | 14.0 | 0.39 | 0.39 | 0.00 | 81 | 1013.0 |
| 20260831090416 | 74 | 355 | 3.0 | 6.0 | 0.39 | 0.39 | 0.00 | 82 | 1013.2 |
| 20260831085916 | 74 | 327 | 2.0 | 4.0 | 0.39 | 0.39 | 0.00 | 81 | 1013.1 |
| 20260831085416 | 74 | 261 | 1.0 | 5.0 | 0.39 | 0.39 | 0.00 | 79 | 1012.8 |
| 20260831084916 | 74 | 312 | 3.0 | 7.0 | 0.39 | 0.39 | 0.00 | 77 | 1012.8 |
| 20260831084417 | 75 | 56 | 3.0 | 9.0 | 0.39 | 0.39 | 0.00 | 76 | 1013.0 |
| 20260831083916 | 74 | 113 | 0.0 | 14.0 | 0.39 | 0.39 | 0.00 | 75 | 1013.3 |
| 20260831083416 | 74 | 55 | 13.0 | 22.0 | 0.39 | 0.39 | 0.00 | 78 | 1013.0 |
| 20260831082918 | 75 | 61 | 12.0 | 23.0 | 0.35 | 0.35 | 0.00 | 75 | 1013.2 |
| 20260831082418 | 77 | 28 | 5.0 | 13.0 | 0.22 | 0.22 | 0.00 | 70 | 1014.1 |
| 20260831081918 | 80 | 55 | 9.0 | 13.0 | 0.11 | 0.11 | 0.00 | 63 | 1014.6 |
| 20260831081416 | 82 | 342 | 5.0 | 19.0 | 0.00 | 0.00 | 0.00 | 55 | 1014.0 |
| 20260831080917 | 82 | 355 | 8.0 | 20.0 | 0.00 | 0.00 | 0.00 | 53 | 1013.0 |
| 20260831080417 | 82 | 27 | 9.0 | 21.0 | 0.00 | 0.00 | 0.00 | 54 | 1013.0 |
| 20260831075916 | 83 | 43 | 13.0 | 21.0 | 0.00 | 0.00 | 0.00 | 54 | 1012.9 |
| 20260831075417 | 83 | 355 | 10.0 | 21.0 | 0.00 | 0.00 | 0.00 | 53 | 1013.0 |
| 20260831074916 | 83 | 347 | 7.0 | 18.0 | 0.00 | 0.00 | 0.00 | 53 | 1013.1 |
| 20260831074416 | 83 | 28 | 10.0 | 22.0 | 0.00 | 0.00 | 0.00 | 53 | 1013.0 |
| 20260831073917 | 83 | 346 | 5.0 | 23.0 | 0.00 | 0.00 | 0.00 | 53 | 1013.1 |
| 20260831073416 | 83 | 355 | 17.0 | 20.0 | 0.00 | 0.00 | 0.00 | 53 | 1013.3 |
| 20260831072916 | 83 | 5 | 8.0 | 22.0 | 0.00 | 0.00 | 0.00 | 54 | 1013.3 |
| 20260831072416 | 83 | 334 | 11.0 | 17.0 | 0.00 | 0.00 | 0.00 | 55 | 1013.3 |
| 20260831071916 | 83 | 339 | 9.0 | 21.0 | 0.00 | 0.00 | 0.00 | 55 | 1013.6 |
| 20260831071416 | 83 | 27 | 8.0 | 21.0 | 0.00 | 0.00 | 0.00 | 55 | 1013.8 |
| 20260831070917 | 83 | 347 | 9.0 | 20.0 | 0.00 | 0.00 | 0.00 | 56 | 1013.6 |
| 20260831070416 | 83 | 338 | 13.0 | 18.0 | 0.00 | 0.00 | 0.00 | 56 | 1013.5 |
| 20260831065916 | 83 | 10 | 6.0 | 18.0 | 0.00 | 0.00 | 0.00 | 56 | 1013.5 |
| 20260831065416 | 84 | 0 | 7.0 | 19.0 | 0.00 | 0.00 | 0.00 | 55 | 1013.6 |
| 20260831064917 | 85 | 27 | 9.0 | 22.0 | 0.00 | 0.00 | 0.00 | 53 | 1013.6 |
| 20260831064416 | 85 | 5 | 14.0 | 17.0 | 0.00 | 0.00 | 0.00 | 50 | 1013.6 |
| 20260831063916 | 85 | 26 | 13.0 | 14.0 | 0.00 | 0.00 | 0.00 | 48 | 1013.6 |
| 20260831063416 | 86 | 19 | 5.0 | 17.0 | 0.00 | 0.00 | 0.00 | 48 | 1013.5 |
| 20260831062917 | 86 | 311 | 9.0 | 15.0 | 0.00 | 0.00 | 0.00 | 49 | 1013.5 |
| 20260831062416 | 87 | 337 | 8.0 | 17.0 | 0.00 | 0.00 | 0.00 | 50 | 1013.4 |
| 20260831061916 | 87 | 331 | 11.0 | 20.0 | 0.00 | 0.00 | 0.00 | 48 | 1013.1 |
| 20260831061416 | 88 | 308 | 7.0 | 10.0 | 0.00 | 0.00 | 0.00 | 48 | 1012.9 |
| 20260831060918 | 87 | 338 | 4.0 | 5.0 | 0.00 | 0.00 | 0.00 | 48 | 1012.6 |
| 20260831060416 | 87 | 5 | 1.0 | 4.0 | 0.00 | 0.00 | 0.00 | 48 | 1012.5 |
| 20260831055917 | 87 | 351 | 2.0 | 2.0 | 0.00 | 0.00 | 0.00 | 49 | 1012.5 |
| 20260831055416 | 87 | 350 | 0.0 | 7.0 | 0.00 | 0.00 | 0.00 | 49 | 1012.5 |
| 20260831054917 | 87 | 51 | 3.0 | 6.0 | 0.00 | 0.00 | 0.00 | 49 | 1012.5 |
| 20260831054417 | 87 | 69 | 2.0 | 3.0 | 0.00 | 0.00 | 0.00 | 50 | 1012.6 |
| 20260831053916 | 87 | 199 | 0.0 | 1.0 | 0.00 | 0.00 | 0.00 | 50 | 1012.8 |
| 20260831053417 | 87 | 200 | 0.0 | 3.0 | 0.00 | 0.00 | 0.00 | 50 | 1012.9 |
| 20260831052918 | 87 | 198 | 1.0 | 3.0 | 0.00 | 0.00 | 0.00 | 50 | 1012.9 |
| 20260831052416 | 87 | 253 | 0.0 | 5.0 | 0.00 | 0.00 | 0.00 | 50 | 1012.9 |
| 20260831051916 | 87 | 290 | 3.0 | 4.0 | 0.00 | 0.00 | 0.00 | 50 | 1012.8 |
| 20260831051416 | 87 | 280 | 1.0 | 3.0 | 0.00 | 0.00 | 0.00 | 50 | 1012.8 |
| 20260831050916 | 87 | 290 | 2.0 | 6.0 | 0.00 | 0.00 | 0.00 | 49 | 1012.9 |
| 20260831050416 | 88 | 259 | 4.0 | 14.0 | 0.00 | 0.00 | 0.00 | 49 | 1013.2 |
| 20260831045917 | 89 | 234 | 4.0 | 10.0 | 0.00 | 0.00 | 0.00 | 48 | 1013.0 |
| 20260831045417 | 90 | 222 | 4.0 | 9.0 | 0.00 | 0.00 | 0.00 | 46 | 1012.7 |
| 20260831044916 | 90 | 212 | 3.0 | 5.0 | 0.00 | 0.00 | 0.00 | 44 | 1012.7 |
| 20260831044417 | 90 | 259 | 2.0 | 7.0 | 0.00 | 0.00 | 0.00 | 44 | 1012.5 |
| 20260831043916 | 90 | 275 | 4.0 | 9.0 | 0.00 | 0.00 | 0.00 | 43 | 1012.4 |
| 20260831043416 | 91 | 278 | 3.0 | 9.0 | 0.00 | 0.00 | 0.00 | 42 | 1012.3 |
| 20260831042916 | 91 | 256 | 3.0 | 14.0 | 0.00 | 0.00 | 0.00 | 41 | 1012.2 |
| 20260831042416 | 91 | 242 | 4.0 | 9.0 | 0.00 | 0.00 | 0.00 | 40 | 1012.2 |
| 20260831041916 | 91 | 209 | 3.0 | 15.0 | 0.00 | 0.00 | 0.00 | 40 | 1012.1 |
| 20260831041416 | 92 | 260 | 6.0 | 13.0 | 0.00 | 0.00 | 0.00 | 39 | 1012.1 |
| 20260831040918 | 95 | 224 | 9.0 | 24.0 | 0.00 | 0.00 | 0.00 | 36 | 1012.0 |
| 20260831040418 | 95 | 241 | 3.0 | 3.0 | 0.00 | 0.00 | 0.00 | 34 | 1011.5 |
| 20260831035916 | 95 | 294 | 0.0 | 0.0 | 0.00 | 0.00 | 0.00 | 34 | 1011.3 |
| 20260831035416 | 95 | 294 | 0.0 | 0.0 | 0.00 | 0.00 | 0.00 | 34 | 1011.3 |
| 20260831034918 | 95 | 294 | 0.0 | 0.0 | 0.00 | 0.00 | 0.00 | 34 | 1011.2 |
| 20260831034416 | 95 | 294 | 0.0 | 0.0 | 0.00 | 0.00 | 0.00 | 33 | 1011.2 |
| 20260831033916 | 95 | 294 | 0.0 | 1.0 | 0.00 | 0.00 | 0.00 | 33 | 1011.2 |
| 20260831033416 | 95 | 309 | 0.0 | 0.0 | 0.00 | 0.00 | 0.00 | 33 | 1011.2 |
| 20260831032916 | 95 | 309 | 0.0 | 0.0 | 0.00 | 0.00 | 0.00 | 33 | 1011.2 |
| 20260831032417 | 95 | 309 | 0.0 | 1.0 | 0.00 | 0.00 | 0.00 | 33 | 1011.1 |
| 20260831031917 | 96 | 309 | 1.0 | 1.0 | 0.00 | 0.00 | 0.00 | 33 | 1011.0 |
| 20260831031416 | 96 | 310 | 0.0 | 1.0 | 0.00 | 0.00 | 0.00 | 32 | 1010.8 |
| 20260831030917 | 97 | 310 | 0.0 | 1.0 | 0.00 | 0.00 | 0.00 | 32 | 1010.8 |
| 20260831030416 | 97 | 310 | 1.0 | 2.0 | 0.00 | 0.00 | 0.00 | 31 | 1010.8 |
| 20260831025916 | 97 | 304 | 1.0 | 3.0 | 0.00 | 0.00 | 0.00 | 31 | 1010.8 |
| 20260831025416 | 97 | 295 | 1.0 | 2.0 | 0.00 | 0.00 | 0.00 | 31 | 1010.7 |
| 20260831024916 | 97 | 298 | 1.0 | 4.0 | 0.00 | 0.00 | 0.00 | 31 | 1010.6 |
| 20260831024416 | 97 | 294 | 1.0 | 4.0 | 0.00 | 0.00 | 0.00 | 31 | 1010.6 |
| 20260831023917 | 97 | 290 | 1.0 | 5.0 | 0.00 | 0.00 | 0.00 | 30 | 1010.5 |
| 20260831023416 | 98 | 302 | 2.0 | 5.0 | 0.00 | 0.00 | 0.00 | 30 | 1010.4 |
| 20260831022916 | 98 | 271 | 3.0 | 6.0 | 0.00 | 0.00 | 0.00 | 30 | 1010.2 |
| 20260831022416 | 98 | 279 | 4.0 | 5.0 | 0.00 | 0.00 | 0.00 | 30 | 1010.1 |
| 20260831021917 | 98 | 292 | 4.0 | 5.0 | 0.00 | 0.00 | 0.00 | 30 | 1010.0 |
| 20260831021416 | 98 | 295 | 3.0 | 4.0 | 0.00 | 0.00 | 0.00 | 30 | 1010.0 |
| 20260831020916 | 98 | 279 | 0.0 | 4.0 | 0.00 | 0.00 | 0.00 | 30 | 1010.0 |
| 20260831020416 | 98 | 308 | 1.0 | 2.0 | 0.00 | 0.00 | 0.00 | 29 | 1010.0 |
| 20260831015916 | 98 | 318 | 0.0 | 5.0 | 0.00 | 0.00 | 0.00 | 29 | 1009.9 |
| 20260831015416 | 98 | 292 | 2.0 | 4.0 | 0.00 | 0.00 | 0.00 | 30 | 1009.8 |
| 20260831014916 | 98 | 317 | 1.0 | 4.0 | 0.00 | 0.00 | 0.00 | 29 | 1009.7 |
| 20260831014417 | 98 | 273 | 3.0 | 3.0 | 0.00 | 0.00 | 0.00 | 29 | 1009.6 |
| 20260831013916 | 99 | 264 | 0.0 | 2.0 | 0.00 | 0.00 | 0.00 | 30 | 1009.6 |
| 20260831013416 | 99 | 299 | 1.0 | 3.0 | 0.00 | 0.00 | 0.00 | 28 | 1009.5 |
| 20260831012917 | 99 | 322 | 2.0 | 4.0 | 0.00 | 0.00 | 0.00 | 28 | 1009.5 |
| 20260831012417 | 99 | 299 | 2.0 | 4.0 | 0.00 | 0.00 | 0.00 | 28 | 1009.5 |
| 20260831011916 | 99 | 313 | 0.0 | 4.0 | 0.00 | 0.00 | 0.00 | 28 | 1009.6 |
| 20260831011416 | 100 | 298 | 2.0 | 6.0 | 0.00 | 0.00 | 0.00 | 27 | 1009.6 |
| 20260831010917 | 100 | 306 | 3.0 | 5.0 | 0.00 | 0.00 | 0.00 | 27 | 1009.6 |
| 20260831010416 | 100 | 238 | 3.0 | 4.0 | 0.00 | 0.00 | 0.00 | 27 | 1009.6 |
| 20260831005916 | 100 | 227 | 1.0 | 4.0 | 0.00 | 0.00 | 0.00 | 27 | 1009.7 |
| 20260831005416 | 101 | 240 | 4.0 | 9.0 | 0.00 | 0.00 | 0.00 | 27 | 1009.7 |
| 20260831004916 | 101 | 190 | 1.0 | 4.0 | 0.00 | 0.00 | 0.00 | 27 | 1009.7 |
| 20260831004417 | 101 | 203 | 2.0 | 6.0 | 0.00 | 0.00 | 0.00 | 27 | 1009.8 |
| 20260831003916 | 101 | 213 | 1.0 | 6.0 | 0.00 | 0.00 | 0.00 | 27 | 1009.8 |
| 20260831003416 | 101 | 186 | 2.0 | 7.0 | 0.00 | 0.00 | 0.00 | 27 | 1009.8 |
| 20260831002918 | 101 | 279 | 4.0 | 5.0 | 0.00 | 0.00 | 0.00 | 27 | 1009.8 |
| 20260831002416 | 101 | 183 | 5.0 | 7.0 | 0.00 | 0.00 | 0.00 | 26 | 1009.8 |
| 20260831001916 | 102 | 216 | 3.0 | 9.0 | 0.00 | 0.00 | 0.00 | 26 | 1009.9 |
| 20260831001416 | 102 | 228 | 3.0 | 7.0 | 0.00 | 0.00 | 0.00 | 26 | 1009.8 |
| 20260831000916 | 101 | 317 | 4.0 | 5.0 | 0.00 | 0.00 | 0.00 | 27 | 1009.9 |
| 20260831000417 | 101 | 182 | 0.0 | 5.0 | 0.00 | 0.00 | 0.00 | 27 | 1009.9 |
| 20260830235917 | 101 | 239 | 3.0 | 8.0 | 0.00 | 0.00 | 0.00 | 26 | 1010.0 |
| 20260830235416 | 102 | 205 | 5.0 | 9.0 | 0.00 | 0.00 | 0.00 | 26 | 1010.0 |
| 20260830234916 | 102 | 300 | 3.0 | 5.0 | 0.00 | 0.00 | 0.00 | 26 | 1009.9 |
| 20260830234418 | 101 | 172 | 2.0 | 4.0 | 0.00 | 0.00 | 0.00 | 25 | 1010.1 |
| 20260830233916 | 102 | 234 | 3.0 | 14.0 | 0.00 | 0.00 | 0.00 | 25 | 1010.1 |
| 20260830233416 | 102 | 262 | 10.0 | 11.0 | 0.00 | 0.00 | 0.00 | 26 | 1010.1 |
| 20260830232917 | 101 | 142 | 3.0 | 6.0 | 0.00 | 0.00 | 0.00 | 27 | 1010.2 |
| 20260830232418 | 101 | 238 | 2.0 | 3.0 | 0.00 | 0.00 | 0.00 | 28 | 1010.2 |
| 20260830231916 | 101 | 235 | 0.0 | 5.0 | 0.00 | 0.00 | 0.00 | 27 | 1010.3 |
| 20260830231417 | 101 | 249 | 5.0 | 8.0 | 0.00 | 0.00 | 0.00 | 27 | 1010.5 |
| 20260830230916 | 102 | 320 | 5.0 | 8.0 | 0.00 | 0.00 | 0.00 | 27 | 1010.5 |
| 20260830230416 | 102 | 252 | 5.0 | 10.0 | 0.00 | 0.00 | 0.00 | 26 | 1010.6 |
| 20260830225916 | 103 | 272 | 6.0 | 8.0 | 0.00 | 0.00 | 0.00 | 26 | 1010.7 |
| 20260830225416 | 102 | 262 | 6.0 | 9.0 | 0.00 | 0.00 | 0.00 | 26 | 1010.7 |
| 20260830224916 | 102 | 290 | 6.0 | 13.0 | 0.00 | 0.00 | 0.00 | 27 | 1010.8 |
| 20260830224417 | 101 | 242 | 3.0 | 8.0 | 0.00 | 0.00 | 0.00 | 28 | 1010.9 |
| 20260830223916 | 101 | 121 | 2.0 | 6.0 | 0.00 | 0.00 | 0.00 | 28 | 1011.0 |
| 20260830223416 | 101 | 230 | 2.0 | 7.0 | 0.00 | 0.00 | 0.00 | 28 | 1011.1 |
| 20260830222917 | 101 | 199 | 1.0 | 7.0 | 0.00 | 0.00 | 0.00 | 28 | 1011.1 |
| 20260830222416 | 101 | 225 | 4.0 | 8.0 | 0.00 | 0.00 | 0.00 | 28 | 1011.2 |
| 20260830221916 | 102 | 331 | 2.0 | 6.0 | 0.00 | 0.00 | 0.00 | 28 | 1011.3 |
| 20260830221416 | 102 | 193 | 6.0 | 7.0 | 0.00 | 0.00 | 0.00 | 28 | 1011.3 |
| 20260830220916 | 102 | 211 | 3.0 | 8.0 | 0.00 | 0.00 | 0.00 | 28 | 1011.4 |
| 20260830220416 | 102 | 232 | 4.0 | 10.0 | 0.00 | 0.00 | 0.00 | 28 | 1011.5 |
| 20260830215916 | 102 | 199 | 5.0 | 12.0 | 0.00 | 0.00 | 0.00 | 28 | 1011.6 |
| 20260830215416 | 100 | 259 | 3.0 | 9.0 | 0.00 | 0.00 | 0.00 | 29 | 1011.8 |
| 20260830214916 | 101 | 190 | 4.0 | 8.0 | 0.00 | 0.00 | 0.00 | 28 | 1011.8 |
| 20260830214416 | 101 | 233 | 4.0 | 7.0 | 0.00 | 0.00 | 0.00 | 28 | 1011.9 |
| 20260830213916 | 101 | 69 | 3.0 | 6.0 | 0.00 | 0.00 | 0.00 | 28 | 1012.0 |
| 20260830213416 | 100 | 32 | 1.0 | 3.0 | 0.00 | 0.00 | 0.00 | 30 | 1012.1 |
| 20260830212916 | 99 | 242 | 2.0 | 4.0 | 0.00 | 0.00 | 0.00 | 30 | 1012.2 |
| 20260830212416 | 99 | 153 | 2.0 | 7.0 | 0.00 | 0.00 | 0.00 | 29 | 1012.4 |
| 20260830211916 | 100 | 188 | 6.0 | 8.0 | 0.00 | 0.00 | 0.00 | 28 | 1012.4 |
| 20260830211416 | 101 | 139 | 3.0 | 8.0 | 0.00 | 0.00 | 0.00 | 29 | 1012.5 |
| 20260830210916 | 101 | 175 | 7.0 | 10.0 | 0.00 | 0.00 | 0.00 | 28 | 1012.6 |
| 20260830210416 | 100 | 227 | 3.0 | 7.0 | 0.00 | 0.00 | 0.00 | 29 | 1012.7 |
| 20260830205916 | 100 | 185 | 3.0 | 4.0 | 0.00 | 0.00 | 0.00 | 28 | 1012.8 |
| 20260830205416 | 100 | 205 | 2.0 | 9.0 | 0.00 | 0.00 | 0.00 | 29 | 1012.9 |
| 20260830204916 | 100 | 215 | 5.0 | 7.0 | 0.00 | 0.00 | 0.00 | 29 | 1012.9 |
| 20260830204417 | 100 | 246 | 1.0 | 9.0 | 0.00 | 0.00 | 0.00 | 29 | 1013.0 |
| 20260830203916 | 101 | 250 | 9.0 | 9.0 | 0.00 | 0.00 | 0.00 | 29 | 1013.1 |
| 20260830203416 | 100 | 219 | 0.0 | 10.0 | 0.00 | 0.00 | 0.00 | 29 | 1013.2 |
| 20260830202916 | 99 | 5 | 1.0 | 5.0 | 0.00 | 0.00 | 0.00 | 30 | 1013.3 |
| 20260830202416 | 99 | 94 | 2.0 | 8.0 | 0.00 | 0.00 | 0.00 | 30 | 1013.4 |
| 20260830201916 | 99 | 132 | 5.0 | 7.0 | 0.00 | 0.00 | 0.00 | 30 | 1013.5 |
| 20260830201416 | 99 | 163 | 1.0 | 8.0 | 0.00 | 0.00 | 0.00 | 30 | 1013.6 |
| 20260830200916 | 99 | 262 | 9.0 | 10.0 | 0.00 | 0.00 | 0.00 | 30 | 1013.6 |
| 20260830200416 | 99 | 214 | 1.0 | 6.0 | 0.00 | 0.00 | 0.00 | 31 | 1013.6 |
| 20260830195916 | 100 | 238 | 5.0 | 8.0 | 0.00 | 0.00 | 0.00 | 30 | 1013.7 |
| 20260830195416 | 99 | 232 | 3.0 | 6.0 | 0.00 | 0.00 | 0.00 | 31 | 1013.7 |
| 20260830194917 | 99 | 202 | 2.0 | 9.0 | 0.00 | 0.00 | 0.00 | 31 | 1013.7 |
| 20260830194416 | 99 | 103 | 0.0 | 9.0 | 0.00 | 0.00 | 0.00 | 31 | 1013.8 |
| 20260830193916 | 99 | 202 | 1.0 | 9.0 | 0.00 | 0.00 | 0.00 | 32 | 1013.8 |
| 20260830193416 | 98 | 188 | 7.0 | 10.0 | 0.00 | 0.00 | 0.00 | 32 | 1013.9 |
| 20260830192916 | 97 | 281 | 3.0 | 5.0 | 0.00 | 0.00 | 0.00 | 32 | 1014.0 |
| 20260830192416 | 98 | 326 | 4.0 | 12.0 | 0.00 | 0.00 | 0.00 | 32 | 1014.1 |
| 20260830191916 | 98 | 254 | 7.0 | 10.0 | 0.00 | 0.00 | 0.00 | 32 | 1014.2 |
| 20260830191418 | 98 | 192 | 3.0 | 8.0 | 0.00 | 0.00 | 0.00 | 32 | 1014.3 |
| 20260830190918 | 97 | 110 | 7.0 | 7.0 | 0.00 | 0.00 | 0.00 | 33 | 1014.4 |
| 20260830190416 | 98 | 183 | 3.0 | 9.0 | 0.00 | 0.00 | 0.00 | 32 | 1014.5 |
| 20260830185916 | 97 | 246 | 7.0 | 10.0 | 0.00 | 0.00 | 0.00 | 33 | 1014.6 |
| 20260830185416 | 98 | 216 | 5.0 | 10.0 | 0.00 | 0.00 | 0.00 | 32 | 1014.6 |
| 20260830184916 | 98 | 207 | 7.0 | 11.0 | 0.00 | 0.00 | 0.00 | 33 | 1014.7 |
| 20260830184416 | 97 | 219 | 4.0 | 12.0 | 0.00 | 0.00 | 0.00 | 33 | 1014.8 |
| 20260830183917 | 97 | 250 | 3.0 | 7.0 | 0.00 | 0.00 | 0.00 | 33 | 1014.9 |
| 20260830183416 | 97 | 238 | 5.0 | 10.0 | 0.00 | 0.00 | 0.00 | 33 | 1014.9 |
| 20260830182916 | 97 | 225 | 6.0 | 11.0 | 0.00 | 0.00 | 0.00 | 32 | 1015.0 |
| 20260830182416 | 97 | 171 | 3.0 | 8.0 | 0.00 | 0.00 | 0.00 | 33 | 1015.1 |